createdAt,value
2023-03-21T00:01:43.385Z,63.47
2023-03-21T00:03:49.264Z,63.18
2023-03-21T00:05:53.645Z,63.36
2023-03-21T00:07:56.487Z,63.74
2023-03-21T00:10:08.674Z,63.50
2023-03-21T00:12:17.151Z,63.67
2023-03-21T00:14:20.215Z,63.76
2023-03-21T00:16:28.896Z,63.28
2023-03-21T00:18:32.323Z,63.25
2023-03-21T00:20:37.765Z,63.07
2023-03-21T00:22:40.407Z,63.12
2023-03-21T00:24:42.985Z,63.30
2023-03-21T00:26:46.158Z,63.28
2023-03-21T00:28:48.856Z,63.23
2023-03-21T00:30:51.975Z,63.11
2023-03-21T00:32:57.033Z,63.24
2023-03-21T00:35:16.382Z,63.61
2023-03-21T00:37:23.574Z,63.26
2023-03-21T00:39:26.638Z,63.71
2023-03-21T00:41:41.856Z,63.82
2023-03-21T00:43:44.909Z,63.75
2023-03-21T00:45:47.784Z,63.23
2023-03-21T00:47:51.325Z,63.42
2023-03-21T00:49:54.016Z,63.48
2023-03-21T00:51:59.561Z,63.69
2023-03-21T00:54:06.448Z,63.33
2023-03-21T00:56:09.919Z,63.53
2023-03-21T00:58:12.957Z,63.70
2023-03-21T01:00:18.011Z,64.20
2023-03-21T01:02:23.013Z,64.02
2023-03-21T01:04:26.894Z,63.89
2023-03-21T01:06:29.624Z,63.77
2023-03-21T01:08:48.644Z,63.93
2023-03-21T01:10:56.685Z,64.04
2023-03-21T01:12:59.608Z,64.35
2023-03-21T01:15:02.230Z,64.47
2023-03-21T01:17:05.320Z,65.00
2023-03-21T01:19:22.212Z,64.79
2023-03-21T01:21:27.651Z,64.67
2023-03-21T01:23:30.644Z,64.41
2023-03-21T01:25:33.212Z,64.55
2023-03-21T01:27:37.119Z,64.86
2023-03-21T01:29:39.672Z,64.73
2023-03-21T01:31:42.260Z,64.51
2023-03-21T01:33:45.315Z,64.12
2023-03-21T01:35:53.398Z,64.22
2023-03-21T01:38:05.723Z,64.31
2023-03-21T01:40:12.681Z,64.42
2023-03-21T01:42:15.458Z,64.34
2023-03-21T01:44:20.681Z,64.54
2023-03-21T01:46:45.387Z,64.49
2023-03-21T01:48:55.904Z,64.10
2023-03-21T01:50:59.444Z,63.77
2023-03-21T01:53:04.045Z,63.71
2023-03-21T01:55:12.562Z,63.54
2023-03-21T01:57:20.977Z,63.53
2023-03-21T01:59:29.276Z,63.77
2023-03-21T02:01:34.810Z,64.07
2023-03-21T02:03:50.209Z,64.21
2023-03-21T02:05:56.889Z,64.69
2023-03-21T02:08:00.812Z,64.50
2023-03-21T02:10:07.795Z,64.90
2023-03-21T02:12:10.427Z,64.57
2023-03-21T02:14:23.398Z,64.61
2023-03-21T02:16:47.027Z,64.58
2023-03-21T02:18:57.847Z,64.84
2023-03-21T02:21:44.926Z,64.67
2023-03-21T02:24:08.981Z,64.40
2023-03-21T02:26:40.878Z,64.19
2023-03-21T02:28:50.725Z,64.37
2023-03-21T02:31:08.398Z,64.25
2023-03-21T02:33:54.186Z,63.86
2023-03-21T02:36:17.529Z,63.42
2023-03-21T02:38:28.119Z,63.11
2023-03-21T02:40:36.089Z,63.05
2023-03-21T02:42:58.010Z,63.29
2023-03-21T02:45:07.608Z,62.74
2023-03-21T02:47:14.881Z,63.37
2023-03-21T02:49:23.420Z,63.06
2023-03-21T02:51:28.803Z,63.30
2023-03-21T02:53:36.873Z,63.75
2023-03-21T02:55:43.774Z,63.33
2023-03-21T02:57:50.559Z,63.43
2023-03-21T03:00:00.157Z,63.89
2023-03-21T03:02:04.831Z,63.53
2023-03-21T03:04:19.401Z,62.85
2023-03-21T03:06:27.593Z,63.46
2023-03-21T03:08:52.892Z,63.56
2023-03-21T03:11:16.404Z,64.13
2023-03-21T03:13:35.851Z,64.38
2023-03-21T03:15:48.012Z,64.27
2023-03-21T03:17:55.483Z,64.71
2023-03-21T03:20:17.448Z,64.45
2023-03-21T03:22:27.570Z,64.57
2023-03-21T03:24:35.028Z,64.50
2023-03-21T03:26:42.427Z,64.26
2023-03-21T03:28:50.180Z,64.30
2023-03-21T03:31:08.022Z,64.75
2023-03-21T03:33:14.901Z,64.93
2023-03-21T03:35:19.705Z,64.52
2023-03-21T03:37:26.398Z,64.60
2023-03-21T03:39:37.101Z,64.60
2023-03-21T03:44:09.676Z,64.20
2023-03-21T03:46:17.356Z,63.97
2023-03-21T03:48:26.223Z,63.56
2023-03-21T03:50:32.786Z,63.44
2023-03-21T03:52:50.122Z,63.80
2023-03-21T03:54:59.820Z,63.56
2023-03-21T03:57:02.542Z,64.02
2023-03-21T03:59:07.347Z,64.26
2023-03-21T04:01:09.909Z,64.61
2023-03-21T04:03:12.844Z,64.85
2023-03-21T04:05:15.639Z,65.11
2023-03-21T04:07:18.351Z,65.22
2023-03-21T04:09:31.341Z,65.06
2023-03-21T04:11:41.292Z,65.03
2023-03-21T04:13:43.906Z,64.72
2023-03-21T04:15:46.807Z,65.07
2023-03-21T04:17:49.421Z,65.09
2023-03-21T04:19:57.770Z,65.17
2023-03-21T04:22:08.132Z,65.25
2023-03-21T04:24:11.925Z,65.30
2023-03-21T04:26:14.536Z,65.08
2023-03-21T04:28:18.509Z,65.05
2023-03-21T04:30:24.761Z,65.64
2023-03-21T04:32:27.525Z,65.32
2023-03-21T04:34:30.085Z,65.21
2023-03-21T04:36:38.918Z,65.02
2023-03-21T04:38:41.721Z,65.03
2023-03-21T04:40:44.290Z,65.42
2023-03-21T04:42:48.186Z,65.19
2023-03-21T04:44:52.196Z,65.12
2023-03-21T04:46:54.745Z,65.16
2023-03-21T04:48:57.354Z,65.14
2023-03-21T04:50:59.936Z,65.12
2023-03-21T04:53:02.489Z,64.22
2023-03-21T04:55:05.785Z,64.33
2023-03-21T04:57:09.029Z,64.87
2023-03-21T04:59:13.910Z,65.36
2023-03-21T05:01:20.654Z,65.04
2023-03-21T05:03:23.379Z,65.26
2023-03-21T05:05:26.225Z,65.42
2023-03-21T05:07:31.235Z,65.38
2023-03-21T05:09:33.810Z,65.59
2023-03-21T05:11:38.708Z,65.75
2023-03-21T05:13:41.473Z,65.87
2023-03-21T05:15:44.048Z,65.68
2023-03-21T05:17:48.665Z,65.43
2023-03-21T05:19:52.801Z,65.41
2023-03-21T05:21:55.448Z,65.43
2023-03-21T05:23:58.410Z,65.09
2023-03-21T05:26:01.011Z,65.52
2023-03-21T05:28:03.609Z,65.62
2023-03-21T05:30:08.539Z,65.73
2023-03-21T05:32:11.132Z,65.65
2023-03-21T05:34:15.399Z,65.31
2023-03-21T05:36:18.004Z,65.75
2023-03-21T05:38:20.603Z,65.54
2023-03-21T05:40:23.428Z,65.83
2023-03-21T05:42:26.660Z,65.75
2023-03-21T05:44:29.291Z,65.15
2023-03-21T05:46:32.012Z,64.73
2023-03-21T05:48:35.388Z,65.51
2023-03-21T05:50:39.774Z,65.43
2023-03-21T05:52:42.356Z,65.47
2023-03-21T05:54:45.005Z,65.34
2023-03-21T05:56:47.577Z,65.42
2023-03-21T05:58:50.142Z,65.63
2023-03-21T06:00:52.714Z,66.31
2023-03-21T06:02:55.346Z,65.83
2023-03-21T06:04:57.907Z,65.34
2023-03-21T06:07:01.897Z,65.33
2023-03-21T06:09:04.744Z,66.03
2023-03-21T06:11:14.222Z,66.52
2023-03-21T06:13:16.895Z,66.41
2023-03-21T06:15:19.450Z,65.92
2023-03-21T06:17:22.063Z,66.80
2023-03-21T06:19:24.637Z,66.36
2023-03-21T06:21:27.231Z,66.56
2023-03-21T06:23:31.152Z,66.61
2023-03-21T06:25:33.799Z,66.78
2023-03-21T06:27:37.187Z,66.90
2023-03-21T06:29:39.763Z,66.12
2023-03-21T06:31:42.379Z,66.21
2023-03-21T06:33:44.987Z,66.87
2023-03-21T06:35:52.399Z,66.91
2023-03-21T06:37:55.052Z,67.38
2023-03-21T06:39:58.939Z,67.08
2023-03-21T06:42:01.912Z,67.17
2023-03-21T06:44:04.867Z,66.93
2023-03-21T06:46:07.520Z,66.79
2023-03-21T06:48:10.301Z,67.00
2023-03-21T06:50:12.953Z,67.00
2023-03-21T06:52:15.528Z,67.11
2023-03-21T06:54:18.949Z,66.89
2023-03-21T06:56:23.026Z,67.14
2023-03-21T06:58:25.656Z,67.10
2023-03-21T07:00:28.565Z,66.68
2023-03-21T07:02:31.508Z,66.82
2023-03-21T07:04:34.398Z,66.58
2023-03-21T07:06:37.124Z,66.30
2023-03-21T07:08:40.300Z,66.44
2023-03-21T07:10:45.425Z,66.24
2023-03-21T07:12:49.523Z,66.18
2023-03-21T07:14:52.295Z,66.34
2023-03-21T07:16:54.930Z,66.31
2023-03-21T07:18:57.508Z,65.80
2023-03-21T07:21:00.373Z,65.51
2023-03-21T07:23:02.987Z,65.60
2023-03-21T07:25:07.716Z,65.80
2023-03-21T07:27:10.519Z,65.25
2023-03-21T07:29:15.350Z,64.85
2023-03-21T07:31:19.689Z,65.37
2023-03-21T07:33:23.167Z,65.25
2023-03-21T07:35:25.887Z,65.71
2023-03-21T07:37:28.725Z,65.29
2023-03-21T07:39:32.908Z,65.68
2023-03-21T07:41:35.480Z,66.18
2023-03-21T07:43:39.308Z,65.33
2023-03-21T07:45:44.312Z,65.06
2023-03-21T07:47:46.897Z,65.80
2023-03-21T07:49:49.451Z,66.17
2023-03-21T07:51:52.053Z,66.49
2023-03-21T07:53:54.804Z,66.57
2023-03-21T07:55:57.415Z,66.80
2023-03-21T07:57:59.952Z,66.13
2023-03-21T08:00:03.455Z,66.19
2023-03-21T08:02:07.395Z,66.29
2023-03-21T08:04:10.000Z,66.95
2023-03-21T08:06:12.644Z,66.75
2023-03-21T08:08:15.204Z,66.82
2023-03-21T08:10:18.543Z,67.04
2023-03-21T08:12:23.390Z,66.47
2023-03-21T08:14:26.002Z,66.70
2023-03-21T08:16:29.124Z,66.27
2023-03-21T08:18:33.067Z,66.11
2023-03-21T08:20:35.798Z,66.42
2023-03-21T08:22:38.753Z,65.96
2023-03-21T08:24:41.321Z,65.63
2023-03-21T08:26:45.924Z,65.75
2023-03-21T08:28:48.478Z,65.59
2023-03-21T08:30:51.210Z,65.68
2023-03-21T08:33:00.835Z,65.19
2023-03-21T08:35:08.513Z,65.07
2023-03-21T08:37:11.174Z,65.10
2023-03-21T08:39:13.912Z,64.92
2023-03-21T08:41:16.544Z,64.91
2023-03-21T08:43:19.098Z,64.35
2023-03-21T08:45:22.652Z,64.46
2023-03-21T08:47:25.236Z,64.03
2023-03-21T08:49:27.802Z,63.39
2023-03-21T08:51:33.637Z,62.16
2023-03-21T08:53:36.293Z,62.12
2023-03-21T08:55:39.219Z,61.25
2023-03-21T08:57:42.122Z,61.37
2023-03-21T08:59:44.682Z,62.01
2023-03-21T09:01:47.805Z,61.92
2023-03-21T09:03:50.411Z,60.55
2023-03-21T09:05:54.833Z,61.10
2023-03-21T09:08:01.481Z,61.20
2023-03-21T09:10:19.590Z,60.74
2023-03-21T09:12:23.063Z,59.09
2023-03-21T09:14:28.805Z,59.61
2023-03-21T09:16:32.282Z,59.99
2023-03-21T09:18:47.248Z,58.47
2023-03-21T09:20:50.427Z,59.04
2023-03-21T09:22:53.347Z,59.04
2023-03-21T09:24:57.490Z,59.15
2023-03-21T09:27:00.647Z,59.49
2023-03-21T09:29:04.887Z,58.94
2023-03-21T09:31:11.669Z,58.90
2023-03-21T09:33:19.237Z,59.33
2023-03-21T09:35:22.038Z,58.87
2023-03-21T09:37:24.652Z,58.71
2023-03-21T09:39:27.635Z,58.10
2023-03-21T09:41:46.720Z,57.79
2023-03-21T09:44:08.109Z,56.42
2023-03-21T09:46:20.712Z,57.04
2023-03-21T09:48:34.967Z,57.20
2023-03-21T09:50:40.483Z,57.44
2023-03-21T09:52:48.375Z,57.73
2023-03-21T09:54:50.997Z,57.51
2023-03-21T09:56:57.500Z,57.50
2023-03-21T09:59:03.110Z,57.74
2023-03-21T10:01:22.294Z,57.21
2023-03-21T10:03:34.945Z,55.78
2023-03-21T10:05:46.547Z,56.09
2023-03-21T10:07:55.470Z,54.34
2023-03-21T10:09:59.641Z,54.99
2023-03-21T10:12:08.229Z,55.36
2023-03-21T10:14:17.496Z,55.66
2023-03-21T10:16:24.380Z,55.78
2023-03-21T10:18:30.585Z,55.55
2023-03-21T10:20:35.416Z,55.60
2023-03-21T10:22:38.033Z,55.49
2023-03-21T10:24:40.671Z,54.80
2023-03-21T10:26:45.331Z,54.47
2023-03-21T10:28:53.332Z,54.79
2023-03-21T10:30:59.296Z,55.19
2023-03-21T10:33:05.684Z,55.45
2023-03-21T10:35:11.102Z,55.72
2023-03-21T10:37:14.829Z,54.65
2023-03-21T10:39:25.836Z,54.80
2023-03-21T10:41:28.468Z,55.11
2023-03-21T10:43:37.780Z,54.24
2023-03-21T10:45:41.897Z,54.80
2023-03-21T10:47:47.703Z,53.98
2023-03-21T10:50:06.237Z,54.39
2023-03-21T10:52:20.883Z,54.48
2023-03-21T10:54:28.301Z,54.76
2023-03-21T10:56:33.046Z,54.85
2023-03-21T10:58:39.874Z,54.92
2023-03-21T11:00:45.106Z,54.01
2023-03-21T11:02:50.337Z,52.61
2023-03-21T11:04:54.572Z,53.12
2023-03-21T11:06:59.708Z,53.70
2023-03-21T11:09:07.464Z,53.95
2023-03-21T11:11:13.143Z,53.64
2023-03-21T11:13:19.691Z,54.07
2023-03-21T11:15:30.166Z,53.75
2023-03-21T11:17:36.606Z,53.32
2023-03-21T11:19:39.265Z,53.86
2023-03-21T11:21:45.162Z,54.00
2023-03-21T11:23:52.830Z,54.10
2023-03-21T11:25:56.168Z,54.07
2023-03-21T11:27:58.969Z,54.13
2023-03-21T11:30:05.033Z,54.27
2023-03-21T11:32:13.138Z,52.63
2023-03-21T11:34:27.415Z,52.43
2023-03-21T11:36:40.982Z,53.05
2023-03-21T11:38:43.600Z,53.30
2023-03-21T11:40:55.416Z,53.71
2023-03-21T11:42:58.530Z,53.81
2023-03-21T11:45:12.264Z,53.80
2023-03-21T11:47:14.829Z,53.62
2023-03-21T11:49:17.699Z,53.03
2023-03-21T11:51:29.881Z,53.26
2023-03-21T11:53:41.591Z,52.69
2023-03-21T11:55:58.898Z,52.94
2023-03-21T11:58:14.905Z,52.44
2023-03-21T12:00:23.741Z,52.74
2023-03-21T12:02:57.509Z,52.86
2023-03-21T12:05:05.378Z,52.36
2023-03-21T12:07:24.329Z,51.95
2023-03-21T12:09:41.031Z,52.53
2023-03-21T12:11:56.296Z,53.16
2023-03-21T12:14:07.184Z,53.15
2023-03-21T12:16:26.048Z,52.53
2023-03-21T12:18:46.683Z,53.23
2023-03-21T12:20:54.546Z,53.50
2023-03-21T12:23:17.057Z,53.78
2023-03-21T12:25:27.780Z,53.79
2023-03-21T12:27:41.670Z,53.48
2023-03-21T12:30:01.795Z,53.09
2023-03-21T12:32:18.555Z,52.78
2023-03-21T12:34:38.876Z,52.79
2023-03-21T12:36:55.489Z,52.73
2023-03-21T12:39:08.608Z,53.23
2023-03-21T12:41:25.451Z,54.07
2023-03-21T12:43:42.235Z,53.69
2023-03-21T12:45:49.904Z,53.12
2023-03-21T12:47:56.894Z,52.78
2023-03-21T12:50:04.457Z,52.75
2023-03-21T12:52:12.644Z,52.05
2023-03-21T12:54:25.194Z,52.36
2023-03-21T12:56:33.255Z,52.60
2023-03-21T12:58:45.216Z,52.51
2023-03-21T13:00:52.179Z,51.89
2023-03-21T13:02:59.545Z,52.42
2023-03-21T13:05:14.167Z,52.25
2023-03-21T13:07:20.664Z,52.22
2023-03-21T13:09:37.637Z,51.67
2023-03-21T13:11:41.483Z,51.69
2023-03-21T13:13:48.956Z,51.17
2023-03-21T13:16:00.405Z,50.34
2023-03-21T13:18:13.198Z,50.12
2023-03-21T13:20:22.732Z,49.93
2023-03-21T13:22:28.698Z,49.63
2023-03-21T13:24:43.715Z,48.86
2023-03-21T13:26:52.869Z,47.71
2023-03-21T13:28:55.795Z,47.46
2023-03-21T13:31:18.228Z,47.67
2023-03-21T13:33:29.378Z,47.72
2023-03-21T13:35:37.872Z,46.62
2023-03-21T13:37:43.594Z,46.08
2023-03-21T13:39:50.501Z,46.21
2023-03-21T13:41:54.631Z,46.73
2023-03-21T13:44:07.872Z,46.10
2023-03-21T13:46:12.326Z,45.54
2023-03-21T13:48:28.762Z,45.35
2023-03-21T13:50:37.464Z,45.31
2023-03-21T13:52:40.167Z,45.40
2023-03-21T13:54:52.964Z,45.70
2023-03-21T13:57:01.032Z,46.05
2023-03-21T13:59:05.167Z,46.25
2023-03-21T14:01:38.053Z,46.75
2023-03-21T14:03:41.744Z,47.20
2023-03-21T14:05:51.264Z,47.12
2023-03-21T14:08:06.237Z,45.43
2023-03-21T14:10:23.209Z,45.92
2023-03-21T14:12:29.718Z,45.54
2023-03-21T14:14:36.362Z,45.82
2023-03-21T14:16:39.676Z,46.16
2023-03-21T14:18:54.203Z,46.25
2023-03-21T14:20:59.868Z,45.82
2023-03-21T14:23:04.778Z,44.77
2023-03-21T14:25:12.154Z,45.30
2023-03-21T14:27:16.278Z,45.90
2023-03-21T14:29:26.510Z,46.01
2023-03-21T14:31:29.601Z,46.28
2023-03-21T14:33:33.669Z,45.69
2023-03-21T14:35:37.164Z,45.80
2023-03-21T14:37:42.475Z,44.98
2023-03-21T14:39:45.100Z,43.91
2023-03-21T14:41:50.878Z,44.66
2023-03-21T14:44:16.576Z,44.86
2023-03-21T14:46:22.005Z,44.66
2023-03-21T14:48:31.654Z,43.62
2023-03-21T14:50:40.493Z,44.26
2023-03-21T14:52:44.390Z,44.64
2023-03-21T14:54:48.421Z,43.64
2023-03-21T14:56:53.272Z,43.09
2023-03-21T14:58:56.918Z,43.14
2023-03-21T15:01:04.083Z,42.17
2023-03-21T15:03:06.842Z,42.16
2023-03-21T15:05:15.385Z,41.56
2023-03-21T15:07:26.126Z,42.49
2023-03-21T15:09:31.583Z,43.50
2023-03-21T15:11:36.092Z,44.05
2023-03-21T15:13:45.402Z,42.61
2023-03-21T15:15:48.772Z,42.82
2023-03-21T15:17:55.783Z,42.78
2023-03-21T15:19:58.444Z,42.73
2023-03-21T15:22:08.475Z,42.37
2023-03-21T15:24:17.138Z,42.32
2023-03-21T15:26:22.181Z,42.27
2023-03-21T15:28:26.797Z,42.33
2023-03-21T15:30:31.314Z,42.57
2023-03-21T15:32:37.938Z,41.66
2023-03-21T15:34:41.881Z,41.88
2023-03-21T15:36:47.770Z,42.12
2023-03-21T15:38:51.391Z,42.03
2023-03-21T15:41:15.030Z,41.78
2023-03-21T15:43:19.854Z,42.35
2023-03-21T15:45:24.874Z,42.85
2023-03-21T15:47:40.606Z,43.03
2023-03-21T15:49:47.560Z,42.16
2023-03-21T15:51:53.511Z,42.24
2023-03-21T15:53:56.456Z,41.95
2023-03-21T15:56:01.976Z,42.22
2023-03-21T15:58:09.772Z,42.83
2023-03-21T16:00:22.826Z,43.21
2023-03-21T16:02:30.758Z,42.21
2023-03-21T16:04:33.357Z,42.85
2023-03-21T16:06:39.552Z,43.22
2023-03-21T16:08:45.951Z,42.85
2023-03-21T16:10:49.813Z,43.01
2023-03-21T16:12:52.611Z,42.98
2023-03-21T16:14:56.485Z,42.99
2023-03-21T16:16:59.561Z,43.30
2023-03-21T16:19:03.238Z,43.61
2023-03-21T16:21:06.515Z,43.49
2023-03-21T16:23:12.355Z,44.07
2023-03-21T16:25:15.254Z,43.70
2023-03-21T16:27:19.807Z,44.05
2023-03-21T16:29:22.556Z,44.17
2023-03-21T16:31:28.134Z,44.39
2023-03-21T16:33:30.703Z,43.93
2023-03-21T16:35:34.145Z,44.44
2023-03-21T16:37:36.715Z,44.91
2023-03-21T16:39:40.777Z,45.27
2023-03-21T16:41:43.553Z,45.68
2023-03-21T16:43:46.678Z,45.43
2023-03-21T16:45:49.245Z,45.80
2023-03-21T16:47:52.678Z,46.22
2023-03-21T16:49:55.698Z,46.28
2023-03-21T16:51:58.265Z,46.48
2023-03-21T16:54:01.090Z,45.96
2023-03-21T16:56:05.519Z,46.20
2023-03-21T16:58:08.141Z,46.26
2023-03-21T17:00:16.741Z,46.13
2023-03-21T17:02:19.313Z,46.32
2023-03-21T17:04:22.478Z,45.72
2023-03-21T17:06:27.612Z,45.67
2023-03-21T17:08:30.513Z,45.94
2023-03-21T17:10:34.341Z,45.24
2023-03-21T17:12:39.102Z,45.21
2023-03-21T17:14:42.215Z,45.07
2023-03-21T17:16:45.324Z,45.21
2023-03-21T17:18:48.498Z,45.13
2023-03-21T17:20:51.088Z,44.67
2023-03-21T17:22:53.702Z,44.68
2023-03-21T17:24:56.262Z,45.23
2023-03-21T17:27:00.344Z,45.91
2023-03-21T17:29:04.448Z,46.59
2023-03-21T17:31:13.853Z,47.26
2023-03-21T17:33:16.445Z,47.98
2023-03-21T17:35:19.677Z,47.68
2023-03-21T17:37:26.022Z,47.86
2023-03-21T17:39:28.851Z,47.66
2023-03-21T17:41:31.460Z,47.69
2023-03-21T17:43:33.994Z,47.58
2023-03-21T17:45:37.875Z,47.02
2023-03-21T17:47:40.541Z,47.00
2023-03-21T17:49:43.173Z,47.28
2023-03-21T17:51:46.987Z,47.41
2023-03-21T17:53:51.851Z,48.08
2023-03-21T17:55:54.496Z,48.22
2023-03-21T17:57:57.135Z,48.52
2023-03-21T17:59:59.939Z,48.92
2023-03-21T18:02:04.393Z,49.28
2023-03-21T18:04:07.230Z,49.45
2023-03-21T18:06:14.892Z,49.88
2023-03-21T18:08:17.463Z,50.32
2023-03-21T18:10:23.185Z,50.89
2023-03-21T18:12:25.720Z,50.97
2023-03-21T18:14:29.441Z,51.18
2023-03-21T18:16:33.243Z,51.70
2023-03-21T18:18:38.020Z,51.94
2023-03-21T18:20:58.409Z,52.12
2023-03-21T18:23:01.264Z,52.22
2023-03-21T18:25:05.738Z,52.19
2023-03-21T18:27:08.761Z,52.40
2023-03-21T18:31:34.098Z,53.24
2023-03-21T18:33:40.184Z,53.19
2023-03-21T18:35:42.841Z,53.66
2023-03-21T18:37:45.453Z,53.61
2023-03-21T18:39:48.185Z,53.35
2023-03-21T18:41:50.866Z,52.86
2023-03-21T18:44:05.188Z,52.91
2023-03-21T18:46:12.716Z,53.11
2023-03-21T18:48:15.396Z,53.44
2023-03-21T18:50:20.443Z,53.68
2023-03-21T18:52:23.038Z,54.16
2023-03-21T18:54:26.296Z,54.47
2023-03-21T18:58:51.846Z,54.68
2023-03-21T19:00:54.658Z,54.69
2023-03-21T19:03:13.048Z,54.74
2023-03-21T19:05:23.563Z,54.82
2023-03-21T19:07:26.174Z,54.93
2023-03-21T19:09:31.933Z,54.77
2023-03-21T19:11:35.822Z,54.96
2023-03-21T19:13:38.468Z,54.99
2023-03-21T19:15:41.658Z,55.02
2023-03-21T19:20:07.883Z,55.03
2023-03-21T19:22:12.614Z,55.61
2023-03-21T19:24:26.947Z,56.24
2023-03-21T19:26:31.410Z,56.94
2023-03-21T19:28:34.107Z,56.45
2023-03-21T19:30:37.055Z,55.96
2023-03-21T19:32:43.301Z,56.43
2023-03-21T19:34:46.952Z,56.59
2023-03-21T19:36:52.091Z,56.50
2023-03-21T19:38:57.013Z,56.38
2023-03-21T19:41:00.095Z,56.65
2023-03-21T19:43:23.857Z,57.09
2023-03-21T19:45:25.191Z,57.74
2023-03-21T19:47:28.445Z,58.60
2023-03-21T19:49:52.095Z,59.16
2023-03-21T19:51:54.187Z,59.19
2023-03-21T19:53:58.159Z,59.51
2023-03-21T19:56:03.628Z,59.73
2023-03-21T19:58:07.100Z,59.48
2023-03-21T20:00:11.316Z,59.81
2023-03-21T20:02:34.354Z,59.85
2023-03-21T20:04:36.987Z,59.89
2023-03-21T20:06:39.555Z,59.90
2023-03-21T20:11:06.750Z,59.88
2023-03-21T20:13:09.421Z,60.26
2023-03-21T20:15:18.690Z,60.04
2023-03-21T20:17:23.676Z,59.84
2023-03-21T20:19:27.222Z,60.08
2023-03-21T20:21:36.635Z,60.51
2023-03-21T20:23:49.304Z,60.67
2023-03-21T20:25:51.942Z,60.74
2023-03-21T20:28:12.764Z,60.50
2023-03-21T20:30:20.000Z,59.94
2023-03-21T20:32:22.585Z,59.05
2023-03-21T20:34:25.239Z,58.33
2023-03-21T20:36:43.760Z,57.81
2023-03-21T20:38:46.689Z,57.53
2023-03-21T20:40:49.939Z,57.18
2023-03-21T20:42:52.638Z,57.08
2023-03-21T20:44:59.093Z,56.95
2023-03-21T20:47:06.266Z,57.12
2023-03-21T20:49:08.827Z,57.09
2023-03-21T20:53:37.450Z,57.89
2023-03-21T20:55:40.083Z,58.18
2023-03-21T20:57:42.634Z,58.35
2023-03-21T20:59:45.955Z,58.57
2023-03-21T21:01:50.517Z,58.70
2023-03-21T21:03:54.260Z,58.63
2023-03-21T21:05:56.861Z,58.71
2023-03-21T21:07:59.424Z,58.53
2023-03-21T21:10:01.998Z,58.82
2023-03-21T21:12:07.632Z,58.95
2023-03-21T21:14:11.243Z,58.95
2023-03-21T21:16:14.524Z,58.95
2023-03-21T21:18:18.483Z,59.36
2023-03-21T21:20:21.365Z,59.07
2023-03-21T21:22:23.989Z,59.36
2023-03-21T21:24:26.667Z,59.37
2023-03-21T21:26:29.256Z,59.92
2023-03-21T21:28:32.094Z,59.87
2023-03-21T21:30:38.140Z,59.87
2023-03-21T21:32:41.900Z,60.02
2023-03-21T21:34:48.026Z,60.24
2023-03-21T21:36:50.670Z,59.79
2023-03-21T21:38:53.235Z,60.02
2023-03-21T21:41:00.516Z,60.32
2023-03-21T21:43:03.923Z,60.43
2023-03-21T21:45:08.531Z,59.89
2023-03-21T21:47:11.196Z,59.95
2023-03-21T21:49:13.794Z,60.29
2023-03-21T21:51:18.067Z,60.13
2023-03-21T21:53:21.273Z,60.16
2023-03-21T21:55:23.930Z,59.93
2023-03-21T21:57:27.165Z,60.07
2023-03-21T21:59:29.977Z,60.12
2023-03-21T22:01:34.724Z,60.35
2023-03-21T22:03:41.072Z,60.54
2023-03-21T22:05:44.751Z,60.84
2023-03-21T22:07:49.426Z,60.87
2023-03-21T22:09:52.209Z,60.75
2023-03-21T22:11:56.593Z,60.86
2023-03-21T22:13:59.150Z,61.23
2023-03-21T22:16:01.762Z,61.25
2023-03-21T22:18:04.751Z,61.21
2023-03-21T22:20:09.723Z,61.30
2023-03-21T22:22:12.433Z,61.17
2023-03-21T22:24:16.614Z,60.87
2023-03-21T22:26:19.280Z,60.16
2023-03-21T22:28:25.528Z,60.51
2023-03-21T22:30:28.110Z,60.52
2023-03-21T22:32:30.725Z,60.70
2023-03-21T22:34:33.313Z,60.84
2023-03-21T22:36:35.872Z,60.80
2023-03-21T22:38:38.929Z,61.04
2023-03-21T22:40:42.862Z,61.11
2023-03-21T22:42:45.485Z,61.10
2023-03-21T22:44:48.082Z,61.34
2023-03-21T22:46:50.695Z,61.33
2023-03-21T22:48:53.260Z,60.69
2023-03-21T22:50:55.819Z,61.08
2023-03-21T22:52:58.361Z,61.00
2023-03-21T22:55:00.938Z,61.04
2023-03-21T22:57:05.207Z,61.45
2023-03-21T22:59:07.754Z,61.10
2023-03-21T23:01:10.375Z,60.70
2023-03-21T23:03:14.502Z,59.82
2023-03-21T23:05:17.275Z,59.62
2023-03-21T23:07:19.874Z,59.97
2023-03-21T23:09:22.469Z,59.67
2023-03-21T23:11:25.475Z,59.97
2023-03-21T23:13:30.038Z,60.34
2023-03-21T23:15:32.769Z,60.65
2023-03-21T23:17:35.627Z,60.25
2023-03-21T23:19:40.559Z,59.89
2023-03-21T23:21:44.286Z,59.83
2023-03-21T23:23:49.749Z,59.27
2023-03-21T23:25:52.456Z,59.69
2023-03-21T23:27:55.158Z,59.93
2023-03-21T23:29:59.122Z,59.91
2023-03-21T23:32:01.894Z,59.72
2023-03-21T23:34:05.262Z,60.20
2023-03-21T23:36:08.921Z,60.03
2023-03-21T23:38:11.459Z,60.34
2023-03-21T23:40:14.765Z,60.18
2023-03-21T23:42:18.739Z,60.21
2023-03-21T23:44:21.382Z,60.08
2023-03-21T23:46:25.334Z,59.84
2023-03-21T23:48:28.321Z,59.66
2023-03-21T23:50:30.921Z,59.94
2023-03-21T23:52:33.540Z,60.24
2023-03-21T23:54:36.344Z,60.19
2023-03-21T23:56:38.960Z,60.00
2023-03-21T23:58:41.592Z,59.78
